createdAt,value
2018-12-10T00:01:05.835Z,6.28
2018-12-10T00:03:34.584Z,6.33
2018-12-10T00:06:02.367Z,6.28
2018-12-10T00:08:30.141Z,6.39
2018-12-10T00:10:57.819Z,6.39
2018-12-10T00:13:25.583Z,6.36
2018-12-10T00:15:53.347Z,6.42
2018-12-10T00:18:20.994Z,6.36
2018-12-10T00:20:48.702Z,6.38
2018-12-10T00:23:17.004Z,6.35
2018-12-10T00:25:44.759Z,6.35
2018-12-10T00:28:12.622Z,6.34
2018-12-10T00:30:40.389Z,6.34
2018-12-10T00:33:08.768Z,6.33
2018-12-10T00:35:36.716Z,6.30
2018-12-10T00:38:04.388Z,6.31
2018-12-10T00:40:32.045Z,6.33
2018-12-10T00:43:00.557Z,6.36
2018-12-10T00:45:28.354Z,6.16
2018-12-10T00:47:56.255Z,6.09
2018-12-10T00:50:24.034Z,6.08
2018-12-10T00:52:51.733Z,6.04
2018-12-10T00:55:19.446Z,6.07
2018-12-10T00:57:47.234Z,5.95
2018-12-10T01:00:15.090Z,5.88
2018-12-10T01:02:43.447Z,5.89
2018-12-10T01:05:11.976Z,5.88
2018-12-10T01:07:39.879Z,5.92
2018-12-10T01:10:07.676Z,5.79
2018-12-10T01:12:35.460Z,5.75
2018-12-10T01:15:03.679Z,5.63
2018-12-10T01:17:32.480Z,5.68
2018-12-10T01:20:00.119Z,5.72
2018-12-10T01:22:28.437Z,5.59
2018-12-10T01:24:56.523Z,5.58
2018-12-10T01:27:24.169Z,5.79
2018-12-10T01:29:51.799Z,5.78
2018-12-10T01:32:19.467Z,5.75
2018-12-10T01:34:47.099Z,5.69
2018-12-10T01:37:14.820Z,5.70
2018-12-10T01:39:42.490Z,5.58
2018-12-10T01:42:10.087Z,5.52
2018-12-10T01:44:37.745Z,5.67
2018-12-10T01:47:05.471Z,5.48
2018-12-10T01:49:33.333Z,5.42
2018-12-10T01:52:00.962Z,5.44
2018-12-10T01:54:29.024Z,5.40
2018-12-10T01:56:57.755Z,5.50
2018-12-10T01:59:25.614Z,5.48
2018-12-10T02:01:53.280Z,5.55
2018-12-10T02:04:21.963Z,5.46
2018-12-10T02:06:50.208Z,5.31
2018-12-10T02:09:18.108Z,5.36
2018-12-10T02:11:45.833Z,5.30
2018-12-10T02:14:13.579Z,5.24
2018-12-10T02:16:41.363Z,5.36
2018-12-10T02:19:09.483Z,5.38
2018-12-10T02:21:37.232Z,5.34
2018-12-10T02:24:05.101Z,5.36
2018-12-10T02:26:32.852Z,5.40
2018-12-10T02:29:06.065Z,5.32
2018-12-10T02:31:33.766Z,5.42
2018-12-10T02:34:01.431Z,5.47
2018-12-10T02:36:29.119Z,5.34
2018-12-10T02:38:56.873Z,5.34
2018-12-10T02:41:24.675Z,5.48
2018-12-10T02:43:54.020Z,5.34
2018-12-10T02:46:21.779Z,5.35
2018-12-10T02:48:49.440Z,5.30
2018-12-10T02:51:17.732Z,5.38
2018-12-10T02:53:45.733Z,5.35
2018-12-10T02:56:13.499Z,5.43
2018-12-10T02:58:41.127Z,5.37
2018-12-10T03:01:08.842Z,5.38
2018-12-10T03:03:37.224Z,5.34
2018-12-10T03:06:04.985Z,5.40
2018-12-10T03:08:33.465Z,5.32
2018-12-10T03:11:01.232Z,5.28
2018-12-10T03:13:28.936Z,5.40
2018-12-10T03:15:56.601Z,5.37
2018-12-10T03:18:24.511Z,5.32
2018-12-10T03:20:52.927Z,5.37
2018-12-10T03:23:21.602Z,5.40
2018-12-10T03:25:50.357Z,5.40
2018-12-10T03:28:18.239Z,5.44
2018-12-10T03:30:45.876Z,5.34
2018-12-10T03:33:14.085Z,5.37
2018-12-10T03:35:41.802Z,5.41
2018-12-10T03:38:09.439Z,5.41
2018-12-10T03:40:37.373Z,5.39
2018-12-10T03:43:05.849Z,5.51
2018-12-10T03:45:33.704Z,5.37
2018-12-10T03:48:02.053Z,5.37
2018-12-10T03:50:29.879Z,5.35
2018-12-10T03:52:58.208Z,5.45
2018-12-10T03:55:26.111Z,5.44
2018-12-10T03:57:53.856Z,5.36
2018-12-10T04:00:21.488Z,5.40
2018-12-10T04:02:49.153Z,5.44
2018-12-10T04:05:16.849Z,5.59
2018-12-10T04:07:44.540Z,5.53
2018-12-10T04:10:12.107Z,5.52
2018-12-10T04:12:39.835Z,5.49
2018-12-10T04:15:07.613Z,5.52
2018-12-10T04:17:35.779Z,5.52
2018-12-10T04:20:04.451Z,5.54
2018-12-10T04:22:32.127Z,5.51
2018-12-10T04:24:59.708Z,5.50
2018-12-10T04:27:27.434Z,5.53
2018-12-10T04:29:55.104Z,5.49
2018-12-10T04:32:22.777Z,5.53
2018-12-10T04:34:50.375Z,5.47
2018-12-10T04:37:18.066Z,5.52
2018-12-10T04:39:45.772Z,5.58
2018-12-10T04:42:13.524Z,5.50
2018-12-10T04:44:41.773Z,5.48
2018-12-10T04:47:09.624Z,5.54
2018-12-10T04:49:38.044Z,5.55
2018-12-10T04:52:05.700Z,5.54
2018-12-10T04:54:34.152Z,5.46
2018-12-10T04:57:01.800Z,5.53
2018-12-10T04:59:29.444Z,5.54
2018-12-10T05:01:57.144Z,5.59
2018-12-10T05:04:27.952Z,5.51
2018-12-10T05:06:55.919Z,5.42
2018-12-10T05:09:24.190Z,5.45
2018-12-10T05:11:52.536Z,5.50
2018-12-10T05:14:20.297Z,5.55
2018-12-10T05:16:47.995Z,5.44
2018-12-10T05:19:15.651Z,5.48
2018-12-10T05:21:43.367Z,5.49
2018-12-10T05:24:11.055Z,5.50
2018-12-10T05:26:38.697Z,5.42
2018-12-10T05:29:06.443Z,5.43
2018-12-10T05:31:34.183Z,5.43
2018-12-10T05:34:02.515Z,5.35
2018-12-10T05:36:30.453Z,5.47
2018-12-10T05:38:58.026Z,5.39
2018-12-10T05:41:25.693Z,5.38
2018-12-10T05:43:53.772Z,5.41
2018-12-10T05:46:21.395Z,5.50
2018-12-10T05:48:49.618Z,5.49
2018-12-10T05:51:17.368Z,5.42
2018-12-10T05:53:45.385Z,5.35
2018-12-10T05:56:13.064Z,5.36
2018-12-10T05:58:40.959Z,5.40
2018-12-10T06:01:08.606Z,5.35
2018-12-10T06:03:36.246Z,5.36
2018-12-10T06:06:03.947Z,5.32
2018-12-10T06:08:31.605Z,5.36
2018-12-10T06:10:59.894Z,5.19
2018-12-10T06:13:27.532Z,5.29
2018-12-10T06:15:55.321Z,5.21
2018-12-10T06:18:23.778Z,5.19
2018-12-10T06:20:51.519Z,5.20
2018-12-10T06:23:19.239Z,5.18
2018-12-10T06:25:47.507Z,5.13
2018-12-10T06:28:15.155Z,4.97
2018-12-10T06:30:42.814Z,4.98
2018-12-10T06:33:10.612Z,5.06
2018-12-10T06:35:38.307Z,4.96
2018-12-10T06:38:05.954Z,4.94
2018-12-10T06:40:33.666Z,4.89
2018-12-10T06:43:01.463Z,4.77
2018-12-10T06:45:29.619Z,4.84
2018-12-10T06:47:58.425Z,4.89
2018-12-10T06:50:26.339Z,4.86
2018-12-10T06:52:54.019Z,4.80
2018-12-10T06:55:21.739Z,4.87
2018-12-10T06:57:50.372Z,4.78
2018-12-10T07:00:18.211Z,4.68
2018-12-10T07:02:45.868Z,4.74
2018-12-10T07:05:13.574Z,4.80
2018-12-10T07:07:41.527Z,4.91
2018-12-10T07:10:09.300Z,4.80
2018-12-10T07:12:37.106Z,4.77
2018-12-10T07:15:05.836Z,4.88
2018-12-10T07:17:33.479Z,4.90
2018-12-10T07:20:01.123Z,4.90
2018-12-10T07:22:28.816Z,4.87
2018-12-10T07:24:56.441Z,4.93
2018-12-10T07:27:24.371Z,4.81
2018-12-10T07:29:52.227Z,5.03
2018-12-10T07:32:20.793Z,4.94
2018-12-10T07:34:48.683Z,5.07
2018-12-10T07:37:16.603Z,4.93
2018-12-10T07:39:44.695Z,4.99
2018-12-10T07:42:12.393Z,5.09
2018-12-10T07:44:40.924Z,5.12
2018-12-10T07:47:08.589Z,5.02
2018-12-10T07:49:36.411Z,4.97
2018-12-10T07:52:04.070Z,4.84
2018-12-10T07:54:31.917Z,4.85
2018-12-10T07:56:59.586Z,4.84
2018-12-10T07:59:27.556Z,4.86
2018-12-10T08:01:55.258Z,4.78
2018-12-10T08:04:22.959Z,4.78
2018-12-10T08:06:50.655Z,4.86
2018-12-10T08:09:18.603Z,4.95
2018-12-10T08:11:46.587Z,4.92
2018-12-10T08:14:14.708Z,4.89
2018-12-10T08:16:42.518Z,4.85
2018-12-10T08:19:10.961Z,4.98
2018-12-10T08:21:39.074Z,5.12
2018-12-10T08:24:06.896Z,4.92
2018-12-10T08:26:34.547Z,4.97
2018-12-10T08:29:07.464Z,5.03
2018-12-10T08:31:32.452Z,4.97
2018-12-10T08:34:00.237Z,4.99
2018-12-10T08:36:28.103Z,4.97
2018-12-10T08:38:56.180Z,4.88
2018-12-10T08:41:23.863Z,4.83
2018-12-10T08:43:51.611Z,4.68
2018-12-10T08:46:19.330Z,4.62
2018-12-10T08:48:47.196Z,4.56
2018-12-10T08:51:15.023Z,4.62
2018-12-10T08:53:42.800Z,4.56
2018-12-10T08:56:10.604Z,4.53
2018-12-10T08:58:38.246Z,4.48
2018-12-10T09:01:05.928Z,4.50
2018-12-10T09:03:33.560Z,4.60
2018-12-10T09:06:01.465Z,4.68
2018-12-10T09:08:29.107Z,4.78
2018-12-10T09:10:56.779Z,4.83
2018-12-10T09:13:24.438Z,5.05
2018-12-10T09:15:52.118Z,5.04
2018-12-10T09:18:20.008Z,4.88
2018-12-10T09:20:48.166Z,5.02
2018-12-10T09:23:16.143Z,5.02
2018-12-10T09:25:43.960Z,5.15
2018-12-10T09:28:19.436Z,5.31
2018-12-10T09:30:42.355Z,5.21
2018-12-10T09:33:10.092Z,5.42
2018-12-10T09:35:37.878Z,5.36
2018-12-10T09:38:05.544Z,5.69
2018-12-10T09:40:33.457Z,5.66
2018-12-10T09:43:01.431Z,5.58
2018-12-10T09:45:29.300Z,5.64
2018-12-10T09:47:57.663Z,5.50
2018-12-10T09:50:25.498Z,5.78
2018-12-10T09:52:53.360Z,6.11
2018-12-10T09:55:21.179Z,6.56
2018-12-10T09:57:49.922Z,6.06
2018-12-10T10:00:18.387Z,5.98
2018-12-10T10:02:46.365Z,5.85
2018-12-10T10:05:14.275Z,6.12
2018-12-10T10:07:42.104Z,6.34
2018-12-10T10:10:10.132Z,6.09
2018-12-10T10:12:37.994Z,6.75
2018-12-10T10:15:05.787Z,7.40
2018-12-10T10:17:33.460Z,10.09
2018-12-10T10:20:01.367Z,9.04
2018-12-10T10:22:29.410Z,7.25
2018-12-10T10:24:57.096Z,9.22
2018-12-10T10:27:25.116Z,10.32
2018-12-10T10:29:52.794Z,9.75
2018-12-10T10:32:20.696Z,9.44
2018-12-10T10:34:48.576Z,9.90
2018-12-10T10:37:16.631Z,9.54
2018-12-10T10:39:44.802Z,9.04
2018-12-10T10:42:13.805Z,8.79
2018-12-10T10:44:42.275Z,8.15
2018-12-10T10:47:10.063Z,7.88
2018-12-10T10:49:38.140Z,7.81
2018-12-10T10:52:05.935Z,8.03
2018-12-10T10:54:34.387Z,8.06
2018-12-10T10:57:02.176Z,8.23
2018-12-10T10:59:29.988Z,7.89
2018-12-10T11:01:59.725Z,7.38
2018-12-10T11:04:27.597Z,7.28
2018-12-10T11:06:56.161Z,6.97
2018-12-10T11:09:24.302Z,6.33
2018-12-10T11:11:52.072Z,6.09
2018-12-10T11:14:19.797Z,6.29
2018-12-10T11:16:47.711Z,6.32
2018-12-10T11:19:16.075Z,6.39
2018-12-10T11:21:44.658Z,5.93
2018-12-10T11:24:13.556Z,5.85
2018-12-10T11:26:41.412Z,6.01
2018-12-10T11:29:09.905Z,6.14
2018-12-10T11:31:37.870Z,5.68
2018-12-10T11:34:06.088Z,5.71
2018-12-10T11:36:34.532Z,5.86
2018-12-10T11:39:04.232Z,5.79
2018-12-10T11:41:32.098Z,5.87
2018-12-10T11:44:00.123Z,6.53
2018-12-10T11:46:28.012Z,5.75
2018-12-10T11:48:55.936Z,5.75
2018-12-10T11:51:23.769Z,5.90
2018-12-10T11:53:51.377Z,5.73
2018-12-10T11:56:19.177Z,5.81
2018-12-10T11:58:47.223Z,5.79
2018-12-10T12:01:14.920Z,5.74
2018-12-10T12:03:42.783Z,5.81
2018-12-10T12:06:10.849Z,5.99
2018-12-10T12:08:38.883Z,5.87
2018-12-10T12:11:07.219Z,5.97
2018-12-10T12:13:35.063Z,5.87
2018-12-10T12:16:02.839Z,5.86
2018-12-10T12:18:30.745Z,5.90
2018-12-10T12:20:58.684Z,5.90
2018-12-10T12:23:27.308Z,5.91
2018-12-10T12:25:56.889Z,6.01
2018-12-10T12:28:24.767Z,5.73
2018-12-10T12:30:53.051Z,5.87
2018-12-10T12:33:21.526Z,5.65
2018-12-10T12:35:49.896Z,5.66
2018-12-10T12:38:17.709Z,5.74
2018-12-10T12:40:45.512Z,5.66
2018-12-10T12:43:16.266Z,5.74
2018-12-10T12:45:42.952Z,5.77
2018-12-10T12:48:10.968Z,5.82
2018-12-10T12:50:38.618Z,5.70
2018-12-10T12:53:07.178Z,5.76
2018-12-10T12:55:35.601Z,5.72
2018-12-10T12:58:03.407Z,5.77
2018-12-10T13:00:31.088Z,5.72
2018-12-10T13:02:58.990Z,5.67
2018-12-10T13:05:26.860Z,5.66
2018-12-10T13:07:54.704Z,5.61
2018-12-10T13:10:22.607Z,5.64
2018-12-10T13:12:50.435Z,5.61
2018-12-10T13:15:18.336Z,5.52
2018-12-10T13:17:46.804Z,5.57
2018-12-10T13:20:14.675Z,5.58
2018-12-10T13:22:47.280Z,5.43
2018-12-10T13:25:13.874Z,5.48
2018-12-10T13:27:43.503Z,5.48
2018-12-10T13:30:11.399Z,5.41
2018-12-10T13:32:40.339Z,5.33
2018-12-10T13:35:08.214Z,5.37
2018-12-10T13:37:35.939Z,5.46
2018-12-10T13:40:05.482Z,5.41
2018-12-10T13:42:33.077Z,5.44
2018-12-10T13:45:00.872Z,5.51
2018-12-10T13:47:28.866Z,5.50
2018-12-10T13:49:57.271Z,5.46
2018-12-10T13:52:25.648Z,5.55
2018-12-10T13:54:54.169Z,5.50
2018-12-10T13:57:22.079Z,5.57
2018-12-10T13:59:50.785Z,5.51
2018-12-10T14:02:18.654Z,5.52
2018-12-10T14:04:47.683Z,5.52
2018-12-10T14:07:15.650Z,5.45
2018-12-10T14:09:43.477Z,5.45
2018-12-10T14:12:15.439Z,5.36
2018-12-10T14:14:43.266Z,5.33
2018-12-10T14:17:11.190Z,5.50
2018-12-10T14:19:40.952Z,5.35
2018-12-10T14:22:09.270Z,5.42
2018-12-10T14:24:37.582Z,5.45
2018-12-10T14:27:06.022Z,5.31
2018-12-10T14:29:33.718Z,5.32
2018-12-10T14:32:01.546Z,5.30
2018-12-10T14:34:29.577Z,5.25
2018-12-10T14:36:57.852Z,5.19
2018-12-10T14:39:26.183Z,5.14
2018-12-10T14:41:54.040Z,5.19
2018-12-10T14:44:22.078Z,5.18
2018-12-10T14:46:50.672Z,5.17
2018-12-10T14:49:18.739Z,5.08
2018-12-10T14:51:46.452Z,5.09
2018-12-10T14:54:14.450Z,5.08
2018-12-10T14:56:42.420Z,5.00
2018-12-10T14:59:10.255Z,5.11
2018-12-10T15:01:37.951Z,4.97
2018-12-10T15:04:06.014Z,4.95
2018-12-10T15:06:34.135Z,4.98
2018-12-10T15:09:02.005Z,5.08
2018-12-10T15:11:29.842Z,4.96
2018-12-10T15:13:58.512Z,5.06
2018-12-10T15:16:26.393Z,5.01
2018-12-10T15:18:54.292Z,4.98
2018-12-10T15:21:23.437Z,4.90
2018-12-10T15:23:51.648Z,4.89
2018-12-10T15:26:20.350Z,4.91
2018-12-10T15:28:48.218Z,4.92
2018-12-10T15:31:16.639Z,4.84
2018-12-10T15:33:44.559Z,4.88
2018-12-10T15:36:12.631Z,4.97
2018-12-10T15:38:40.456Z,4.98
2018-12-10T15:41:09.275Z,5.01
2018-12-10T15:43:37.112Z,5.04
2018-12-10T15:46:04.914Z,5.01
2018-12-10T15:48:32.988Z,4.96
2018-12-10T15:51:01.057Z,4.89
2018-12-10T15:53:30.331Z,4.87
2018-12-10T16:02:26.782Z,4.77
2018-12-10T16:04:55.318Z,4.78
2018-12-10T16:07:23.388Z,4.81
2018-12-10T16:09:51.255Z,4.80
2018-12-10T16:12:20.304Z,4.82
2018-12-10T16:14:48.850Z,4.89
2018-12-10T16:17:16.634Z,4.83
2018-12-10T16:19:46.218Z,4.74
2018-12-10T16:22:14.119Z,4.71
2018-12-10T16:24:42.164Z,4.61
2018-12-10T16:27:10.237Z,4.48
2018-12-10T16:29:38.291Z,4.38
2018-12-10T16:32:06.615Z,4.38
2018-12-10T16:34:34.506Z,4.35
2018-12-10T16:37:03.318Z,4.45
2018-12-10T16:39:31.151Z,4.49
2018-12-10T16:41:59.119Z,4.41
2018-12-10T16:44:27.239Z,4.33
2018-12-10T16:46:55.219Z,4.38
2018-12-10T16:49:23.469Z,4.32
2018-12-10T16:51:51.303Z,4.39
2018-12-10T16:54:19.394Z,4.33
2018-12-10T16:56:47.682Z,4.42
2018-12-10T16:59:15.340Z,4.37
2018-12-10T17:01:43.848Z,4.35
2018-12-10T17:04:12.204Z,4.33
2018-12-10T17:06:40.561Z,4.40
2018-12-10T17:09:10.449Z,4.37
2018-12-10T17:11:38.800Z,4.29
2018-12-10T17:14:06.788Z,4.31
2018-12-10T17:16:34.939Z,4.26
2018-12-10T17:19:03.335Z,4.23
2018-12-10T17:21:31.626Z,4.15
2018-12-10T17:23:59.357Z,4.12
2018-12-10T17:26:27.396Z,4.17
2018-12-10T17:28:55.891Z,4.15
2018-12-10T17:31:24.492Z,4.18
2018-12-10T17:33:52.423Z,4.23
2018-12-10T17:36:20.389Z,4.26
2018-12-10T17:38:48.693Z,4.30
2018-12-10T17:41:16.813Z,4.24
2018-12-10T17:43:44.948Z,4.30
2018-12-10T17:46:12.847Z,4.26
2018-12-10T17:48:41.945Z,4.28
2018-12-10T17:51:10.125Z,4.28
2018-12-10T17:53:38.467Z,4.31
2018-12-10T17:56:06.482Z,4.33
2018-12-10T17:58:34.786Z,4.46
2018-12-10T18:01:03.476Z,4.44
2018-12-10T18:03:32.208Z,4.47
2018-12-10T18:06:01.016Z,4.42
2018-12-10T18:08:28.838Z,4.39
2018-12-10T18:10:56.476Z,4.42
2018-12-10T18:13:25.267Z,4.41
2018-12-10T18:15:53.255Z,4.45
2018-12-10T18:18:21.098Z,4.44
2018-12-10T18:20:49.379Z,4.41
2018-12-10T18:23:17.328Z,4.52
2018-12-10T18:25:45.418Z,4.45
2018-12-10T18:28:13.474Z,4.48
2018-12-10T18:30:41.572Z,4.48
2018-12-10T18:33:09.840Z,4.40
2018-12-10T18:35:37.883Z,4.44
2018-12-10T18:38:05.774Z,4.39
2018-12-10T18:40:34.239Z,4.42
2018-12-10T18:43:02.897Z,4.45
2018-12-10T18:45:31.124Z,4.47
2018-12-10T18:47:59.095Z,4.44
2018-12-10T18:50:27.347Z,4.39
2018-12-10T18:52:56.854Z,4.46
2018-12-10T18:55:25.058Z,4.35
2018-12-10T18:57:53.515Z,4.31
2018-12-10T19:00:21.414Z,4.45
2018-12-10T19:02:49.619Z,4.41
2018-12-10T19:05:17.625Z,4.37
2018-12-10T19:07:46.334Z,4.43
2018-12-10T19:10:15.839Z,4.31
2018-12-10T19:12:47.398Z,4.26
2018-12-10T19:15:15.444Z,4.32
2018-12-10T19:17:43.557Z,4.29
2018-12-10T19:20:13.699Z,4.35
2018-12-10T19:22:41.875Z,4.32
2018-12-10T19:25:09.781Z,4.34
2018-12-10T19:27:38.560Z,4.42
2018-12-10T19:30:07.561Z,4.44
2018-12-10T19:32:35.575Z,4.45
2018-12-10T19:35:04.008Z,4.42
2018-12-10T19:37:36.214Z,4.42
2018-12-10T19:40:06.307Z,4.42
2018-12-10T19:42:34.937Z,4.23
2018-12-10T19:45:04.142Z,4.30
2018-12-10T19:47:32.067Z,4.25
2018-12-10T19:50:00.913Z,4.05
2018-12-10T19:52:28.901Z,4.10
2018-12-10T19:54:56.775Z,4.09
2018-12-10T19:57:25.147Z,4.23
2018-12-10T19:59:52.859Z,4.26
2018-12-10T20:02:20.789Z,4.27
2018-12-10T20:04:48.648Z,4.22
2018-12-10T20:07:16.380Z,4.10
2018-12-10T20:09:44.493Z,4.13
2018-12-10T20:12:12.205Z,4.13
2018-12-10T20:14:40.012Z,4.08
2018-12-10T20:17:08.311Z,4.16
2018-12-10T20:19:36.363Z,4.19
2018-12-10T20:22:04.801Z,4.18
2018-12-10T20:24:32.577Z,4.20
2018-12-10T20:27:00.288Z,4.28
2018-12-10T20:29:29.014Z,4.26
2018-12-10T20:31:56.965Z,4.38
2018-12-10T20:34:24.782Z,4.35
2018-12-10T20:36:52.626Z,4.23
2018-12-10T20:39:20.372Z,4.29
2018-12-10T20:41:48.352Z,4.27
2018-12-10T20:44:16.759Z,4.29
2018-12-10T20:46:44.636Z,4.25
2018-12-10T20:49:12.602Z,4.30
2018-12-10T20:51:40.473Z,4.29
2018-12-10T21:00:14.477Z,4.40
2018-12-10T21:02:42.277Z,4.29
2018-12-10T21:08:07.073Z,4.22
2018-12-10T21:10:35.386Z,4.24
2018-12-10T21:13:03.430Z,4.29
2018-12-10T21:15:31.830Z,4.40
2018-12-10T21:17:59.699Z,4.37
2018-12-10T21:20:27.770Z,4.28
2018-12-10T21:22:55.843Z,4.34
2018-12-10T21:25:23.714Z,4.30
2018-12-10T21:27:51.780Z,4.39
2018-12-10T21:30:19.815Z,4.25
2018-12-10T21:32:47.820Z,4.23
2018-12-10T21:35:15.789Z,4.25
2018-12-10T21:37:43.655Z,4.12
2018-12-10T21:40:11.905Z,4.31
2018-12-10T21:42:39.843Z,4.18
2018-12-10T21:45:08.285Z,4.24
2018-12-10T21:47:36.326Z,4.29
2018-12-10T21:50:05.292Z,4.16
2018-12-10T21:52:33.307Z,4.25
2018-12-10T21:55:01.575Z,4.26
2018-12-10T21:57:29.661Z,4.28
2018-12-10T21:59:57.526Z,4.36
2018-12-10T22:02:25.521Z,4.43
2018-12-10T22:04:53.434Z,4.34
2018-12-10T22:07:21.945Z,4.32
2018-12-10T22:09:53.491Z,4.32
2018-12-10T22:12:21.406Z,4.22
2018-12-10T22:14:49.346Z,4.22
2018-12-10T22:17:17.212Z,4.36
2018-12-10T22:19:46.703Z,4.29
2018-12-10T22:22:15.284Z,4.26
2018-12-10T22:24:43.383Z,4.12
2018-12-10T22:27:11.536Z,4.14
2018-12-10T22:29:39.501Z,4.23
2018-12-10T22:32:07.381Z,4.09
2018-12-10T22:34:35.322Z,4.18
2018-12-10T22:37:03.587Z,4.17
2018-12-10T22:39:31.687Z,4.22
2018-12-10T22:41:59.380Z,4.18
2018-12-10T22:44:27.385Z,4.16
2018-12-10T22:46:55.326Z,4.10
2018-12-10T22:49:23.267Z,4.19
2018-12-10T22:51:51.732Z,4.25
2018-12-10T22:54:19.498Z,4.23
2018-12-10T22:56:47.570Z,4.23
2018-12-10T22:59:15.582Z,4.32
2018-12-10T23:01:43.903Z,4.43
2018-12-10T23:04:11.784Z,4.46
2018-12-10T23:06:39.703Z,4.50
2018-12-10T23:09:08.192Z,4.47
2018-12-10T23:11:36.203Z,4.51
2018-12-10T23:14:04.122Z,4.51
2018-12-10T23:16:32.353Z,4.58
2018-12-10T23:19:00.255Z,4.59
2018-12-10T23:21:28.170Z,4.60
2018-12-10T23:23:56.136Z,4.65
2018-12-10T23:26:24.221Z,4.66
2018-12-10T23:28:52.293Z,4.66
2018-12-10T23:31:20.333Z,4.65
2018-12-10T23:33:48.273Z,4.71
2018-12-10T23:36:16.138Z,4.72
2018-12-10T23:38:44.080Z,4.64
2018-12-10T23:41:11.945Z,4.68
2018-12-10T23:43:40.515Z,4.69
2018-12-10T23:46:08.251Z,4.68
2018-12-10T23:48:36.292Z,4.80
2018-12-10T23:51:04.321Z,4.83
2018-12-10T23:53:32.372Z,4.73
2018-12-10T23:56:01.337Z,4.74
2018-12-10T23:58:29.557Z,4.71
